sensor_id;sensor_type;location;lat;lon;timestamp;temperature;humidity
8715;DHT22;4394;51.208;8.904;2022-07-23T00:01:27;17.90;99.90
8715;DHT22;4394;51.208;8.904;2022-07-23T00:04:15;18.00;99.90
8715;DHT22;4394;51.208;8.904;2022-07-23T00:07:07;17.80;99.90
8715;DHT22;4394;51.208;8.904;2022-07-23T00:09:55;17.70;99.90
8715;DHT22;4394;51.208;8.904;2022-07-23T00:12:44;17.70;99.90
8715;DHT22;4394;51.208;8.904;2022-07-23T00:15:39;17.70;99.90
8715;DHT22;4394;51.208;8.904;2022-07-23T00:18:28;17.70;99.90
8715;DHT22;4394;51.208;8.904;2022-07-23T00:21:17;17.60;99.90
8715;DHT22;4394;51.208;8.904;2022-07-23T00:24:06;17.70;99.90
8715;DHT22;4394;51.208;8.904;2022-07-23T00:26:55;17.70;99.90
8715;DHT22;4394;51.208;8.904;2022-07-23T00:29:44;17.70;99.90
8715;DHT22;4394;51.208;8.904;2022-07-23T00:32:47;17.70;99.90
8715;DHT22;4394;51.208;8.904;2022-07-23T00:35:43;17.70;99.90
8715;DHT22;4394;51.208;8.904;2022-07-23T00:38:31;17.60;99.90
8715;DHT22;4394;51.208;8.904;2022-07-23T00:41:20;17.60;99.90
8715;DHT22;4394;51.208;8.904;2022-07-23T00:44:18;17.60;99.90
8715;DHT22;4394;51.208;8.904;2022-07-23T00:47:07;17.60;99.90
8715;DHT22;4394;51.208;8.904;2022-07-23T00:49:57;17.50;99.90
8715;DHT22;4394;51.208;8.904;2022-07-23T00:52:48;17.60;99.90
8715;DHT22;4394;51.208;8.904;2022-07-23T00:55:38;17.60;99.90
8715;DHT22;4394;51.208;8.904;2022-07-23T00:58:28;17.60;99.90
8715;DHT22;4394;51.208;8.904;2022-07-23T01:01:16;17.60;99.90
8715;DHT22;4394;51.208;8.904;2022-07-23T01:04:05;17.60;99.90
8715;DHT22;4394;51.208;8.904;2022-07-23T01:06:55;17.60;99.90
8715;DHT22;4394;51.208;8.904;2022-07-23T01:09:45;17.60;99.90
8715;DHT22;4394;51.208;8.904;2022-07-23T01:12:35;17.50;99.90
8715;DHT22;4394;51.208;8.904;2022-07-23T01:15:24;17.40;99.90
8715;DHT22;4394;51.208;8.904;2022-07-23T01:18:13;17.40;99.90
8715;DHT22;4394;51.208;8.904;2022-07-23T01:21:01;17.40;99.90
8715;DHT22;4394;51.208;8.904;2022-07-23T01:23:51;17.50;99.90
8715;DHT22;4394;51.208;8.904;2022-07-23T01:26:41;17.40;99.90
8715;DHT22;4394;51.208;8.904;2022-07-23T01:29:31;17.40;99.90
8715;DHT22;4394;51.208;8.904;2022-07-23T01:32:19;17.40;99.90
8715;DHT22;4394;51.208;8.904;2022-07-23T01:35:08;17.30;99.90
8715;DHT22;4394;51.208;8.904;2022-07-23T01:37:56;17.30;99.90
8715;DHT22;4394;51.208;8.904;2022-07-23T01:40:45;17.20;99.90
8715;DHT22;4394;51.208;8.904;2022-07-23T01:43:40;17.20;99.90
8715;DHT22;4394;51.208;8.904;2022-07-23T01:46:28;17.00;99.90
8715;DHT22;4394;51.208;8.904;2022-07-23T01:49:19;17.00;99.90
8715;DHT22;4394;51.208;8.904;2022-07-23T01:52:07;17.00;99.90
8715;DHT22;4394;51.208;8.904;2022-07-23T01:54:58;16.90;99.90
8715;DHT22;4394;51.208;8.904;2022-07-23T01:57:48;16.90;99.90
8715;DHT22;4394;51.208;8.904;2022-07-23T02:00:37;16.90;99.90
8715;DHT22;4394;51.208;8.904;2022-07-23T02:03:26;16.80;99.90
8715;DHT22;4394;51.208;8.904;2022-07-23T02:06:15;16.80;99.90
8715;DHT22;4394;51.208;8.904;2022-07-23T02:09:03;16.80;99.90
8715;DHT22;4394;51.208;8.904;2022-07-23T02:11:51;16.80;99.90
8715;DHT22;4394;51.208;8.904;2022-07-23T02:14:41;16.80;99.90
8715;DHT22;4394;51.208;8.904;2022-07-23T02:17:29;16.80;99.90
8715;DHT22;4394;51.208;8.904;2022-07-23T02:20:18;16.80;99.90
8715;DHT22;4394;51.208;8.904;2022-07-23T02:23:05;16.80;99.90
8715;DHT22;4394;51.208;8.904;2022-07-23T02:25:56;16.90;99.90
8715;DHT22;4394;51.208;8.904;2022-07-23T02:28:44;16.80;99.90
8715;DHT22;4394;51.208;8.904;2022-07-23T02:31:34;16.90;99.90
8715;DHT22;4394;51.208;8.904;2022-07-23T02:34:22;16.90;99.90
8715;DHT22;4394;51.208;8.904;2022-07-23T02:37:11;16.90;99.90
8715;DHT22;4394;51.208;8.904;2022-07-23T02:39:59;16.90;99.90
8715;DHT22;4394;51.208;8.904;2022-07-23T02:42:49;16.80;99.90
8715;DHT22;4394;51.208;8.904;2022-07-23T02:45:37;16.90;99.90
8715;DHT22;4394;51.208;8.904;2022-07-23T02:48:26;16.90;99.90
8715;DHT22;4394;51.208;8.904;2022-07-23T02:51:14;17.00;99.90
8715;DHT22;4394;51.208;8.904;2022-07-23T02:54:03;17.00;99.90
8715;DHT22;4394;51.208;8.904;2022-07-23T02:56:51;17.00;99.90
8715;DHT22;4394;51.208;8.904;2022-07-23T02:59:40;17.10;99.90
8715;DHT22;4394;51.208;8.904;2022-07-23T03:02:28;17.00;99.90
8715;DHT22;4394;51.208;8.904;2022-07-23T03:05:18;17.00;99.90
8715;DHT22;4394;51.208;8.904;2022-07-23T03:08:07;17.10;99.90
8715;DHT22;4394;51.208;8.904;2022-07-23T03:10:56;17.00;99.90
8715;DHT22;4394;51.208;8.904;2022-07-23T03:13:45;17.10;99.90
8715;DHT22;4394;51.208;8.904;2022-07-23T03:16:34;17.00;99.90
8715;DHT22;4394;51.208;8.904;2022-07-23T03:19:23;17.00;99.90
8715;DHT22;4394;51.208;8.904;2022-07-23T03:22:13;17.00;99.90
8715;DHT22;4394;51.208;8.904;2022-07-23T03:25:03;17.00;99.90
8715;DHT22;4394;51.208;8.904;2022-07-23T03:27:51;17.00;99.90
8715;DHT22;4394;51.208;8.904;2022-07-23T03:30:39;16.90;99.90
8715;DHT22;4394;51.208;8.904;2022-07-23T03:33:27;16.90;99.90
8715;DHT22;4394;51.208;8.904;2022-07-23T03:36:16;16.80;99.90
8715;DHT22;4394;51.208;8.904;2022-07-23T03:39:09;16.80;99.90
8715;DHT22;4394;51.208;8.904;2022-07-23T03:41:59;16.80;99.90
8715;DHT22;4394;51.208;8.904;2022-07-23T03:44:50;16.80;99.90
8715;DHT22;4394;51.208;8.904;2022-07-23T03:47:38;16.90;99.90
8715;DHT22;4394;51.208;8.904;2022-07-23T03:50:26;16.80;99.90
8715;DHT22;4394;51.208;8.904;2022-07-23T03:53:14;16.80;99.90
8715;DHT22;4394;51.208;8.904;2022-07-23T03:56:04;16.90;99.90
8715;DHT22;4394;51.208;8.904;2022-07-23T03:58:53;16.90;99.90
8715;DHT22;4394;51.208;8.904;2022-07-23T04:01:41;17.00;99.90
8715;DHT22;4394;51.208;8.904;2022-07-23T04:04:30;16.80;99.90
8715;DHT22;4394;51.208;8.904;2022-07-23T04:07:18;16.80;99.90
8715;DHT22;4394;51.208;8.904;2022-07-23T04:10:07;16.80;99.90
8715;DHT22;4394;51.208;8.904;2022-07-23T04:12:59;16.90;99.90
8715;DHT22;4394;51.208;8.904;2022-07-23T04:15:48;16.90;99.90
8715;DHT22;4394;51.208;8.904;2022-07-23T04:18:37;16.80;99.90
8715;DHT22;4394;51.208;8.904;2022-07-23T04:21:26;16.80;99.90
8715;DHT22;4394;51.208;8.904;2022-07-23T04:24:15;16.90;99.90
8715;DHT22;4394;51.208;8.904;2022-07-23T04:27:04;16.90;99.90
8715;DHT22;4394;51.208;8.904;2022-07-23T04:29:54;16.90;99.90
8715;DHT22;4394;51.208;8.904;2022-07-23T04:32:42;16.90;99.90
8715;DHT22;4394;51.208;8.904;2022-07-23T04:35:30;17.00;99.90
8715;DHT22;4394;51.208;8.904;2022-07-23T04:38:18;17.00;99.90
8715;DHT22;4394;51.208;8.904;2022-07-23T04:41:06;17.00;99.90
8715;DHT22;4394;51.208;8.904;2022-07-23T04:43:54;17.10;99.90
8715;DHT22;4394;51.208;8.904;2022-07-23T04:46:43;17.10;99.90
8715;DHT22;4394;51.208;8.904;2022-07-23T04:49:33;17.10;99.90
8715;DHT22;4394;51.208;8.904;2022-07-23T04:52:21;17.10;99.90
8715;DHT22;4394;51.208;8.904;2022-07-23T04:55:09;17.20;99.90
8715;DHT22;4394;51.208;8.904;2022-07-23T04:57:57;17.20;99.90
8715;DHT22;4394;51.208;8.904;2022-07-23T05:00:45;17.20;99.90
8715;DHT22;4394;51.208;8.904;2022-07-23T05:03:35;17.30;99.90
8715;DHT22;4394;51.208;8.904;2022-07-23T05:06:23;17.30;99.90
8715;DHT22;4394;51.208;8.904;2022-07-23T05:09:11;17.30;99.90
8715;DHT22;4394;51.208;8.904;2022-07-23T05:12:00;17.30;99.90
8715;DHT22;4394;51.208;8.904;2022-07-23T05:14:48;17.30;99.90
8715;DHT22;4394;51.208;8.904;2022-07-23T05:17:36;17.40;99.90
8715;DHT22;4394;51.208;8.904;2022-07-23T05:20:25;17.40;99.90
8715;DHT22;4394;51.208;8.904;2022-07-23T05:23:14;17.40;99.90
8715;DHT22;4394;51.208;8.904;2022-07-23T05:26:02;17.40;99.90
8715;DHT22;4394;51.208;8.904;2022-07-23T05:28:51;17.40;99.90
8715;DHT22;4394;51.208;8.904;2022-07-23T05:31:39;17.40;99.90
8715;DHT22;4394;51.208;8.904;2022-07-23T05:34:28;17.40;99.90
8715;DHT22;4394;51.208;8.904;2022-07-23T05:37:17;17.40;99.90
8715;DHT22;4394;51.208;8.904;2022-07-23T05:40:07;17.40;99.90
8715;DHT22;4394;51.208;8.904;2022-07-23T05:42:57;17.30;99.90
8715;DHT22;4394;51.208;8.904;2022-07-23T05:45:45;17.30;99.90
8715;DHT22;4394;51.208;8.904;2022-07-23T05:48:34;17.40;99.90
8715;DHT22;4394;51.208;8.904;2022-07-23T05:51:24;17.40;99.90
8715;DHT22;4394;51.208;8.904;2022-07-23T05:54:14;17.50;99.90
8715;DHT22;4394;51.208;8.904;2022-07-23T05:57:06;17.50;99.90
8715;DHT22;4394;51.208;8.904;2022-07-23T05:59:57;17.60;99.90
8715;DHT22;4394;51.208;8.904;2022-07-23T06:02:45;17.60;99.90
8715;DHT22;4394;51.208;8.904;2022-07-23T06:05:41;17.60;99.90
8715;DHT22;4394;51.208;8.904;2022-07-23T06:08:29;17.60;99.90
8715;DHT22;4394;51.208;8.904;2022-07-23T06:11:20;17.70;99.90
8715;DHT22;4394;51.208;8.904;2022-07-23T06:14:09;17.70;99.90
8715;DHT22;4394;51.208;8.904;2022-07-23T06:16:57;17.70;99.90
8715;DHT22;4394;51.208;8.904;2022-07-23T06:19:46;17.70;99.90
8715;DHT22;4394;51.208;8.904;2022-07-23T06:22:35;17.70;99.90
8715;DHT22;4394;51.208;8.904;2022-07-23T06:25:23;17.80;99.90
8715;DHT22;4394;51.208;8.904;2022-07-23T06:28:12;17.80;99.90
8715;DHT22;4394;51.208;8.904;2022-07-23T06:31:01;17.90;99.90
8715;DHT22;4394;51.208;8.904;2022-07-23T06:33:51;17.80;99.90
8715;DHT22;4394;51.208;8.904;2022-07-23T06:36:39;17.90;99.90
8715;DHT22;4394;51.208;8.904;2022-07-23T06:39:28;17.80;99.90
8715;DHT22;4394;51.208;8.904;2022-07-23T06:42:17;17.70;99.90
8715;DHT22;4394;51.208;8.904;2022-07-23T06:45:08;17.60;99.90
8715;DHT22;4394;51.208;8.904;2022-07-23T06:47:56;17.60;99.90
8715;DHT22;4394;51.208;8.904;2022-07-23T06:50:44;17.60;99.90
8715;DHT22;4394;51.208;8.904;2022-07-23T06:53:32;17.70;99.90
8715;DHT22;4394;51.208;8.904;2022-07-23T06:56:20;17.80;99.90
8715;DHT22;4394;51.208;8.904;2022-07-23T06:59:09;17.90;99.90
8715;DHT22;4394;51.208;8.904;2022-07-23T07:01:59;18.00;99.90
8715;DHT22;4394;51.208;8.904;2022-07-23T07:04:47;18.20;99.90
8715;DHT22;4394;51.208;8.904;2022-07-23T07:07:35;18.20;99.90
8715;DHT22;4394;51.208;8.904;2022-07-23T07:10:23;18.20;99.90
8715;DHT22;4394;51.208;8.904;2022-07-23T07:13:12;18.20;99.90
8715;DHT22;4394;51.208;8.904;2022-07-23T07:16:01;18.20;99.90
8715;DHT22;4394;51.208;8.904;2022-07-23T07:18:51;18.30;99.90
8715;DHT22;4394;51.208;8.904;2022-07-23T07:21:39;18.30;99.90
8715;DHT22;4394;51.208;8.904;2022-07-23T07:24:26;18.40;99.90
8715;DHT22;4394;51.208;8.904;2022-07-23T07:27:21;18.50;99.90
8715;DHT22;4394;51.208;8.904;2022-07-23T07:30:11;18.60;99.90
8715;DHT22;4394;51.208;8.904;2022-07-23T07:32:59;18.60;99.90
8715;DHT22;4394;51.208;8.904;2022-07-23T07:35:49;18.70;99.90
8715;DHT22;4394;51.208;8.904;2022-07-23T07:38:38;18.70;99.90
8715;DHT22;4394;51.208;8.904;2022-07-23T07:41:25;18.80;99.90
8715;DHT22;4394;51.208;8.904;2022-07-23T07:44:14;18.80;99.90
8715;DHT22;4394;51.208;8.904;2022-07-23T07:47:02;18.90;99.90
8715;DHT22;4394;51.208;8.904;2022-07-23T07:49:51;19.00;99.90
8715;DHT22;4394;51.208;8.904;2022-07-23T07:52:41;19.10;99.90
8715;DHT22;4394;51.208;8.904;2022-07-23T07:55:29;19.20;99.90
8715;DHT22;4394;51.208;8.904;2022-07-23T07:58:18;19.30;99.90
8715;DHT22;4394;51.208;8.904;2022-07-23T08:01:06;19.30;99.90
8715;DHT22;4394;51.208;8.904;2022-07-23T08:03:55;19.30;99.90
8715;DHT22;4394;51.208;8.904;2022-07-23T08:06:44;19.40;99.90
8715;DHT22;4394;51.208;8.904;2022-07-23T08:09:34;19.40;99.90
8715;DHT22;4394;51.208;8.904;2022-07-23T08:12:22;19.40;99.90
8715;DHT22;4394;51.208;8.904;2022-07-23T08:15:12;19.40;99.90
8715;DHT22;4394;51.208;8.904;2022-07-23T08:18:00;19.50;99.90
8715;DHT22;4394;51.208;8.904;2022-07-23T08:20:48;19.50;99.90
8715;DHT22;4394;51.208;8.904;2022-07-23T08:23:36;19.60;99.90
8715;DHT22;4394;51.208;8.904;2022-07-23T08:26:26;19.60;99.90
8715;DHT22;4394;51.208;8.904;2022-07-23T08:29:14;19.80;99.90
8715;DHT22;4394;51.208;8.904;2022-07-23T08:32:04;19.90;99.90
8715;DHT22;4394;51.208;8.904;2022-07-23T08:35:12;19.90;99.90
8715;DHT22;4394;51.208;8.904;2022-07-23T08:38:03;20.00;99.90
8715;DHT22;4394;51.208;8.904;2022-07-23T08:40:53;20.00;99.90
8715;DHT22;4394;51.208;8.904;2022-07-23T08:43:46;20.10;99.90
8715;DHT22;4394;51.208;8.904;2022-07-23T08:46:34;20.20;99.90
8715;DHT22;4394;51.208;8.904;2022-07-23T08:49:29;20.20;99.90
8715;DHT22;4394;51.208;8.904;2022-07-23T08:52:18;20.20;99.90
8715;DHT22;4394;51.208;8.904;2022-07-23T08:55:13;20.30;99.90
8715;DHT22;4394;51.208;8.904;2022-07-23T08:58:04;20.40;99.90
8715;DHT22;4394;51.208;8.904;2022-07-23T09:00:55;20.20;99.90
8715;DHT22;4394;51.208;8.904;2022-07-23T09:03:44;20.10;99.90
8715;DHT22;4394;51.208;8.904;2022-07-23T09:06:34;20.20;99.90
8715;DHT22;4394;51.208;8.904;2022-07-23T09:09:23;20.50;99.90
8715;DHT22;4394;51.208;8.904;2022-07-23T09:12:16;20.60;99.90
8715;DHT22;4394;51.208;8.904;2022-07-23T09:15:06;20.80;99.90
8715;DHT22;4394;51.208;8.904;2022-07-23T09:17:56;21.00;99.90
8715;DHT22;4394;51.208;8.904;2022-07-23T09:20:45;21.00;99.90
8715;DHT22;4394;51.208;8.904;2022-07-23T09:23:37;21.20;99.90
8715;DHT22;4394;51.208;8.904;2022-07-23T09:26:32;21.20;99.90
8715;DHT22;4394;51.208;8.904;2022-07-23T09:29:22;21.30;99.90
8715;DHT22;4394;51.208;8.904;2022-07-23T09:32:13;21.30;99.90
8715;DHT22;4394;51.208;8.904;2022-07-23T09:35:03;21.50;99.90
8715;DHT22;4394;51.208;8.904;2022-07-23T09:38:01;21.60;99.90
8715;DHT22;4394;51.208;8.904;2022-07-23T09:41:06;21.70;99.90
8715;DHT22;4394;51.208;8.904;2022-07-23T09:43:55;21.70;99.90
8715;DHT22;4394;51.208;8.904;2022-07-23T09:46:45;21.80;99.90
8715;DHT22;4394;51.208;8.904;2022-07-23T09:49:34;21.90;99.90
8715;DHT22;4394;51.208;8.904;2022-07-23T09:52:27;22.00;99.90
8715;DHT22;4394;51.208;8.904;2022-07-23T09:55:31;22.10;99.90
8715;DHT22;4394;51.208;8.904;2022-07-23T09:58:22;22.20;99.90
8715;DHT22;4394;51.208;8.904;2022-07-23T10:01:14;22.30;99.90
8715;DHT22;4394;51.208;8.904;2022-07-23T10:04:03;22.40;99.90
8715;DHT22;4394;51.208;8.904;2022-07-23T10:06:53;22.50;99.90
8715;DHT22;4394;51.208;8.904;2022-07-23T10:09:45;22.70;99.90
8715;DHT22;4394;51.208;8.904;2022-07-23T10:12:36;22.80;99.90
8715;DHT22;4394;51.208;8.904;2022-07-23T10:15:51;22.80;99.90
8715;DHT22;4394;51.208;8.904;2022-07-23T10:18:40;22.80;99.90
8715;DHT22;4394;51.208;8.904;2022-07-23T10:21:40;22.80;99.90
8715;DHT22;4394;51.208;8.904;2022-07-23T10:24:46;22.90;99.90
8715;DHT22;4394;51.208;8.904;2022-07-23T10:28:07;23.10;99.90
8715;DHT22;4394;51.208;8.904;2022-07-23T10:31:02;23.10;99.90
8715;DHT22;4394;51.208;8.904;2022-07-23T10:33:59;23.10;99.90
8715;DHT22;4394;51.208;8.904;2022-07-23T10:36:56;23.10;99.90
8715;DHT22;4394;51.208;8.904;2022-07-23T10:39:47;23.30;99.90
8715;DHT22;4394;51.208;8.904;2022-07-23T10:42:36;23.40;99.90
8715;DHT22;4394;51.208;8.904;2022-07-23T10:45:27;23.40;99.90
8715;DHT22;4394;51.208;8.904;2022-07-23T10:48:18;23.50;99.90
8715;DHT22;4394;51.208;8.904;2022-07-23T10:51:09;23.50;99.90
8715;DHT22;4394;51.208;8.904;2022-07-23T10:53:58;23.60;99.90
8715;DHT22;4394;51.208;8.904;2022-07-23T10:57:07;23.60;99.90
8715;DHT22;4394;51.208;8.904;2022-07-23T11:00:16;23.70;99.90
8715;DHT22;4394;51.208;8.904;2022-07-23T11:03:27;23.80;99.90
8715;DHT22;4394;51.208;8.904;2022-07-23T11:06:17;23.80;99.90
8715;DHT22;4394;51.208;8.904;2022-07-23T11:09:23;23.70;99.90
8715;DHT22;4394;51.208;8.904;2022-07-23T11:12:33;23.70;99.90
8715;DHT22;4394;51.208;8.904;2022-07-23T11:15:23;24.00;99.90
8715;DHT22;4394;51.208;8.904;2022-07-23T11:18:11;24.30;99.90
8715;DHT22;4394;51.208;8.904;2022-07-23T11:24:50;24.40;99.90
8715;DHT22;4394;51.208;8.904;2022-07-23T11:27:39;24.60;99.90
8715;DHT22;4394;51.208;8.904;2022-07-23T11:30:39;25.00;99.90
8715;DHT22;4394;51.208;8.904;2022-07-23T11:33:27;25.10;99.90
8715;DHT22;4394;51.208;8.904;2022-07-23T11:36:15;24.90;99.90
8715;DHT22;4394;51.208;8.904;2022-07-23T11:39:03;24.70;99.90
8715;DHT22;4394;51.208;8.904;2022-07-23T11:41:53;24.90;99.90
8715;DHT22;4394;51.208;8.904;2022-07-23T11:44:46;25.10;99.90
8715;DHT22;4394;51.208;8.904;2022-07-23T11:47:35;25.20;99.90
8715;DHT22;4394;51.208;8.904;2022-07-23T11:50:25;25.10;99.90
8715;DHT22;4394;51.208;8.904;2022-07-23T11:53:21;25.20;99.90
8715;DHT22;4394;51.208;8.904;2022-07-23T11:56:11;25.30;99.90
8715;DHT22;4394;51.208;8.904;2022-07-23T11:59:01;25.60;99.90
8715;DHT22;4394;51.208;8.904;2022-07-23T12:01:57;25.70;99.90
8715;DHT22;4394;51.208;8.904;2022-07-23T12:04:47;25.90;99.90
8715;DHT22;4394;51.208;8.904;2022-07-23T12:07:38;25.80;99.90
8715;DHT22;4394;51.208;8.904;2022-07-23T12:10:30;25.70;99.90
8715;DHT22;4394;51.208;8.904;2022-07-23T12:13:20;25.60;99.90
8715;DHT22;4394;51.208;8.904;2022-07-23T12:16:11;25.70;99.90
8715;DHT22;4394;51.208;8.904;2022-07-23T12:19:00;25.80;99.90
8715;DHT22;4394;51.208;8.904;2022-07-23T12:21:49;26.00;99.90
8715;DHT22;4394;51.208;8.904;2022-07-23T12:24:58;26.00;99.90
8715;DHT22;4394;51.208;8.904;2022-07-23T12:27:58;26.00;99.90
8715;DHT22;4394;51.208;8.904;2022-07-23T12:30:48;25.80;99.40
8715;DHT22;4394;51.208;8.904;2022-07-23T12:33:39;25.60;99.90
8715;DHT22;4394;51.208;8.904;2022-07-23T12:36:37;25.60;99.90
8715;DHT22;4394;51.208;8.904;2022-07-23T12:39:30;25.80;99.90
8715;DHT22;4394;51.208;8.904;2022-07-23T12:42:18;26.20;99.90
8715;DHT22;4394;51.208;8.904;2022-07-23T12:45:09;26.30;99.90
8715;DHT22;4394;51.208;8.904;2022-07-23T12:48:02;26.20;99.90
8715;DHT22;4394;51.208;8.904;2022-07-23T12:50:58;26.30;99.90
8715;DHT22;4394;51.208;8.904;2022-07-23T12:53:49;26.20;98.90
8715;DHT22;4394;51.208;8.904;2022-07-23T12:56:38;26.00;99.30
8715;DHT22;4394;51.208;8.904;2022-07-23T12:59:31;25.90;99.70
8715;DHT22;4394;51.208;8.904;2022-07-23T13:02:20;25.80;99.90
8715;DHT22;4394;51.208;8.904;2022-07-23T13:05:08;26.00;99.90
8715;DHT22;4394;51.208;8.904;2022-07-23T13:07:59;26.00;99.90
8715;DHT22;4394;51.208;8.904;2022-07-23T13:10:49;26.00;99.90
8715;DHT22;4394;51.208;8.904;2022-07-23T13:13:38;25.90;99.30
8715;DHT22;4394;51.208;8.904;2022-07-23T13:16:27;25.90;99.90
8715;DHT22;4394;51.208;8.904;2022-07-23T13:19:17;25.80;99.90
8715;DHT22;4394;51.208;8.904;2022-07-23T13:22:06;25.70;99.90
8715;DHT22;4394;51.208;8.904;2022-07-23T13:24:57;25.70;99.90
8715;DHT22;4394;51.208;8.904;2022-07-23T13:27:47;25.60;99.90
8715;DHT22;4394;51.208;8.904;2022-07-23T13:30:35;25.50;99.90
8715;DHT22;4394;51.208;8.904;2022-07-23T13:33:24;25.80;99.90
8715;DHT22;4394;51.208;8.904;2022-07-23T13:36:13;26.20;99.90
8715;DHT22;4394;51.208;8.904;2022-07-23T13:39:01;26.70;99.90
8715;DHT22;4394;51.208;8.904;2022-07-23T13:41:53;26.70;98.80
8715;DHT22;4394;51.208;8.904;2022-07-23T13:44:42;26.70;98.60
8715;DHT22;4394;51.208;8.904;2022-07-23T13:47:30;26.70;98.00
8715;DHT22;4394;51.208;8.904;2022-07-23T13:50:18;26.90;98.20
8715;DHT22;4394;51.208;8.904;2022-07-23T13:53:10;27.00;97.70
8715;DHT22;4394;51.208;8.904;2022-07-23T13:55:59;27.10;97.30
8715;DHT22;4394;51.208;8.904;2022-07-23T13:58:49;27.30;97.90
8715;DHT22;4394;51.208;8.904;2022-07-23T14:01:38;27.30;96.60
8715;DHT22;4394;51.208;8.904;2022-07-23T14:04:47;27.30;95.00
8715;DHT22;4394;51.208;8.904;2022-07-23T14:07:37;27.40;94.70
8715;DHT22;4394;51.208;8.904;2022-07-23T14:10:25;27.60;94.60
8715;DHT22;4394;51.208;8.904;2022-07-23T14:13:13;27.60;94.60
8715;DHT22;4394;51.208;8.904;2022-07-23T14:16:05;27.40;95.00
8715;DHT22;4394;51.208;8.904;2022-07-23T14:18:54;27.20;94.70
8715;DHT22;4394;51.208;8.904;2022-07-23T14:21:42;26.90;94.70
8715;DHT22;4394;51.208;8.904;2022-07-23T14:24:30;26.70;95.40
8715;DHT22;4394;51.208;8.904;2022-07-23T14:27:21;26.80;94.30
8715;DHT22;4394;51.208;8.904;2022-07-23T14:30:12;27.10;94.60
8715;DHT22;4394;51.208;8.904;2022-07-23T14:33:03;27.20;94.60
8715;DHT22;4394;51.208;8.904;2022-07-23T14:35:51;27.40;94.40
8715;DHT22;4394;51.208;8.904;2022-07-23T14:38:39;27.70;93.50
8715;DHT22;4394;51.208;8.904;2022-07-23T14:41:28;27.60;93.60
8715;DHT22;4394;51.208;8.904;2022-07-23T14:44:17;27.60;93.50
8715;DHT22;4394;51.208;8.904;2022-07-23T14:47:05;27.60;93.00
8715;DHT22;4394;51.208;8.904;2022-07-23T14:49:57;27.50;92.40
8715;DHT22;4394;51.208;8.904;2022-07-23T14:52:45;27.50;92.60
8715;DHT22;4394;51.208;8.904;2022-07-23T14:55:54;27.60;92.70
8715;DHT22;4394;51.208;8.904;2022-07-23T14:58:44;27.80;91.90
8715;DHT22;4394;51.208;8.904;2022-07-23T15:01:32;28.00;91.40
8715;DHT22;4394;51.208;8.904;2022-07-23T15:04:21;28.00;90.50
8715;DHT22;4394;51.208;8.904;2022-07-23T15:07:26;28.00;90.10
8715;DHT22;4394;51.208;8.904;2022-07-23T15:10:17;28.20;90.40
8715;DHT22;4394;51.208;8.904;2022-07-23T15:13:08;28.00;88.30
8715;DHT22;4394;51.208;8.904;2022-07-23T15:15:56;27.90;89.90
8715;DHT22;4394;51.208;8.904;2022-07-23T15:18:49;27.90;90.50
8715;DHT22;4394;51.208;8.904;2022-07-23T15:21:38;28.20;90.80
8715;DHT22;4394;51.208;8.904;2022-07-23T15:24:36;28.20;89.70
8715;DHT22;4394;51.208;8.904;2022-07-23T15:27:25;27.90;86.20
8715;DHT22;4394;51.208;8.904;2022-07-23T15:30:16;27.90;88.70
8715;DHT22;4394;51.208;8.904;2022-07-23T15:33:05;27.90;88.40
8715;DHT22;4394;51.208;8.904;2022-07-23T15:36:05;28.10;88.90
8715;DHT22;4394;51.208;8.904;2022-07-23T15:38:54;28.30;87.80
8715;DHT22;4394;51.208;8.904;2022-07-23T15:41:43;28.60;85.50
8715;DHT22;4394;51.208;8.904;2022-07-23T15:44:34;28.70;84.00
8715;DHT22;4394;51.208;8.904;2022-07-23T15:47:22;28.40;80.80
8715;DHT22;4394;51.208;8.904;2022-07-23T15:50:11;28.20;83.60
8715;DHT22;4394;51.208;8.904;2022-07-23T15:52:59;28.40;86.40
8715;DHT22;4394;51.208;8.904;2022-07-23T15:55:48;28.80;87.80
8715;DHT22;4394;51.208;8.904;2022-07-23T15:58:38;28.50;82.90
8715;DHT22;4394;51.208;8.904;2022-07-23T16:01:26;28.60;84.20
8715;DHT22;4394;51.208;8.904;2022-07-23T16:04:16;28.80;86.10
8715;DHT22;4394;51.208;8.904;2022-07-23T16:07:05;29.10;83.20
8715;DHT22;4394;51.208;8.904;2022-07-23T16:10:14;29.30;83.00
8715;DHT22;4394;51.208;8.904;2022-07-23T16:13:02;29.10;81.00
8715;DHT22;4394;51.208;8.904;2022-07-23T16:15:51;28.80;80.50
8715;DHT22;4394;51.208;8.904;2022-07-23T16:18:41;28.90;81.80
8715;DHT22;4394;51.208;8.904;2022-07-23T16:21:29;29.10;80.10
8715;DHT22;4394;51.208;8.904;2022-07-23T16:24:18;29.20;79.20
8715;DHT22;4394;51.208;8.904;2022-07-23T16:27:06;29.10;78.80
8715;DHT22;4394;51.208;8.904;2022-07-23T16:29:54;29.00;79.10
8715;DHT22;4394;51.208;8.904;2022-07-23T16:32:45;29.20;79.70
8715;DHT22;4394;51.208;8.904;2022-07-23T16:35:34;29.50;79.30
8715;DHT22;4394;51.208;8.904;2022-07-23T16:38:23;29.60;78.00
8715;DHT22;4394;51.208;8.904;2022-07-23T16:41:12;29.60;79.80
8715;DHT22;4394;51.208;8.904;2022-07-23T16:44:00;29.70;77.30
8715;DHT22;4394;51.208;8.904;2022-07-23T16:46:48;29.90;78.50
8715;DHT22;4394;51.208;8.904;2022-07-23T16:49:38;29.90;76.00
8715;DHT22;4394;51.208;8.904;2022-07-23T16:52:26;30.00;76.20
8715;DHT22;4394;51.208;8.904;2022-07-23T16:55:15;30.20;75.90
8715;DHT22;4394;51.208;8.904;2022-07-23T16:58:04;30.20;74.00
8715;DHT22;4394;51.208;8.904;2022-07-23T17:00:53;30.10;74.00
8715;DHT22;4394;51.208;8.904;2022-07-23T17:03:42;29.90;72.20
8715;DHT22;4394;51.208;8.904;2022-07-23T17:06:34;30.10;73.80
8715;DHT22;4394;51.208;8.904;2022-07-23T17:09:22;30.10;71.20
8715;DHT22;4394;51.208;8.904;2022-07-23T17:12:11;29.90;70.50
8715;DHT22;4394;51.208;8.904;2022-07-23T17:14:59;29.80;71.10
8715;DHT22;4394;51.208;8.904;2022-07-23T17:17:53;30.00;71.90
8715;DHT22;4394;51.208;8.904;2022-07-23T17:20:43;30.10;72.10
8715;DHT22;4394;51.208;8.904;2022-07-23T17:23:33;30.20;71.60
8715;DHT22;4394;51.208;8.904;2022-07-23T17:26:22;30.20;69.50
8715;DHT22;4394;51.208;8.904;2022-07-23T17:29:10;29.90;69.40
8715;DHT22;4394;51.208;8.904;2022-07-23T17:31:59;29.40;70.00
8715;DHT22;4394;51.208;8.904;2022-07-23T17:34:47;29.10;71.20
8715;DHT22;4394;51.208;8.904;2022-07-23T17:37:35;29.00;73.30
8715;DHT22;4394;51.208;8.904;2022-07-23T17:40:25;29.10;73.40
8715;DHT22;4394;51.208;8.904;2022-07-23T17:43:13;29.10;72.70
8715;DHT22;4394;51.208;8.904;2022-07-23T17:46:04;29.10;72.20
8715;DHT22;4394;51.208;8.904;2022-07-23T17:48:53;29.10;72.40
8715;DHT22;4394;51.208;8.904;2022-07-23T17:51:41;29.00;71.70
8715;DHT22;4394;51.208;8.904;2022-07-23T17:54:30;29.00;73.20
8715;DHT22;4394;51.208;8.904;2022-07-23T17:57:23;28.90;72.00
8715;DHT22;4394;51.208;8.904;2022-07-23T18:00:14;28.60;72.30
8715;DHT22;4394;51.208;8.904;2022-07-23T18:03:03;28.20;73.40
8715;DHT22;4394;51.208;8.904;2022-07-23T18:05:53;27.80;73.80
8715;DHT22;4394;51.208;8.904;2022-07-23T18:08:42;27.50;74.80
8715;DHT22;4394;51.208;8.904;2022-07-23T18:11:30;27.10;75.60
8715;DHT22;4394;51.208;8.904;2022-07-23T18:14:20;26.90;77.90
8715;DHT22;4394;51.208;8.904;2022-07-23T18:17:08;26.70;79.00
8715;DHT22;4394;51.208;8.904;2022-07-23T18:19:57;26.60;79.80
8715;DHT22;4394;51.208;8.904;2022-07-23T18:22:45;26.50;80.40
8715;DHT22;4394;51.208;8.904;2022-07-23T18:25:33;26.60;80.00
8715;DHT22;4394;51.208;8.904;2022-07-23T18:28:21;26.60;80.90
8715;DHT22;4394;51.208;8.904;2022-07-23T18:31:11;26.70;81.40
8715;DHT22;4394;51.208;8.904;2022-07-23T18:34:01;26.80;82.30
8715;DHT22;4394;51.208;8.904;2022-07-23T18:36:50;26.90;81.80